Time;durP1;ratioP1;P1;durP2;ratioP2;P2;SDS_P1;SDS_P2;PMS_P1;PMS_P2;Temp;Humidity;BMP_temperature;BMP_pressure;BME280_temperature;BME280_humidity;BME280_pressure;Samples;Min_cycle;Max_cycle;Signal;HPM_P1;HPM_P2
2023/02/27 00:00:35;;;;;;;2.00;1.03;;;;;;;-3.93;100.00;96578.84;6196672;23;20416;-89
2023/02/27 00:03:03;;;;;;;3.90;1.57;;;;;;;-4.01;100.00;96578.34;6220952;23;20977;-89
2023/02/27 00:05:29;;;;;;;6.07;1.53;;;;;;;-3.98;100.00;96583.34;6215468;23;20966;-89
2023/02/27 00:07:58;;;;;;;7.10;1.63;;;;;;;-3.98;100.00;96588.50;6189565;23;20507;-89
2023/02/27 00:10:24;;;;;;;5.07;1.63;;;;;;;-4.01;100.00;96586.03;6190360;23;20016;-89
2023/02/27 00:12:50;;;;;;;5.97;1.70;;;;;;;-3.99;100.00;96589.38;6188293;23;20796;-89
2023/02/27 00:15:18;;;;;;;6.03;2.17;;;;;;;-3.98;100.00;96584.19;6188475;23;20019;-89
2023/02/27 00:17:45;;;;;;;5.00;1.90;;;;;;;-4.00;100.00;96590.28;6191061;23;20516;-89
2023/02/27 00:20:13;;;;;;;3.87;1.60;;;;;;;-3.94;100.00;96587.47;6167965;23;20433;-89
2023/02/27 00:22:42;;;;;;;4.97;1.70;;;;;;;-3.94;100.00;96593.44;6167352;23;20423;-89
2023/02/27 00:25:08;;;;;;;3.80;1.63;;;;;;;-3.91;100.00;96592.47;6212539;23;20430;-89
2023/02/27 00:27:36;;;;;;;5.10;1.60;;;;;;;-3.95;100.00;96588.38;6199285;23;20424;-89
2023/02/27 00:30:07;;;;;;;3.20;1.50;;;;;;;-3.98;100.00;96588.50;6193427;23;20454;-89
2023/02/27 00:32:37;;;;;;;3.73;1.33;;;;;;;-4.06;100.00;96584.50;6165169;23;20478;-89
2023/02/27 00:35:05;;;;;;;3.10;1.43;;;;;;;-3.97;100.00;96595.28;6194687;23;20419;-89
2023/02/27 00:37:31;;;;;;;4.20;1.63;;;;;;;-4.02;100.00;96603.19;6166132;23;20683;-89
2023/02/27 00:39:59;;;;;;;3.13;1.37;;;;;;;-3.91;100.00;96603.59;6189711;23;20769;-89
2023/02/27 00:42:26;;;;;;;3.17;1.63;;;;;;;-3.94;100.00;96598.56;6165752;23;20930;-89
2023/02/27 00:44:53;;;;;;;7.83;3.47;;;;;;;-3.90;100.00;96604.41;6189653;23;20408;-89
2023/02/27 00:47:22;;;;;;;5.70;1.97;;;;;;;-3.90;100.00;96604.41;6188881;23;20461;-89
2023/02/27 00:49:47;;;;;;;5.07;1.43;;;;;;;-3.95;100.00;96602.03;6189401;23;20439;-89
2023/02/27 00:52:13;;;;;;;4.23;1.50;;;;;;;-3.94;100.00;96608.00;6163585;23;20423;-89
2023/02/27 00:54:40;;;;;;;4.63;2.00;;;;;;;-4.00;100.00;96603.13;6215411;23;20023;-89
2023/02/27 00:57:08;;;;;;;2.60;1.33;;;;;;;-4.01;100.00;96596.31;6189635;23;20011;-88
2023/02/27 00:59:35;;;;;;;3.47;1.47;;;;;;;-4.00;100.00;96597.97;6214047;23;20878;-89
2023/02/27 01:02:01;;;;;;;7.30;2.33;;;;;;;-4.06;100.00;96594.78;6164571;23;20420;-89
2023/02/27 01:04:27;;;;;;;4.40;1.80;;;;;;;-4.06;100.00;96599.91;6189448;23;20431;-89
2023/02/27 01:06:53;;;;;;;4.57;2.23;;;;;;;-4.10;100.00;96602.66;6188873;23;20321;-89
2023/02/27 01:09:18;;;;;;;4.83;1.73;;;;;;;-4.14;100.00;96590.81;6163791;23;20012;-89
2023/02/27 01:11:46;;;;;;;4.70;1.77;;;;;;;-4.17;100.00;96596.09;6188564;23;20012;-89
2023/02/27 01:14:12;;;;;;;5.67;1.90;;;;;;;-4.17;100.00;96602.06;6164130;23;20012;-89
2023/02/27 01:16:37;;;;;;;7.30;2.10;;;;;;;-4.17;100.00;96599.47;6164648;23;20407;-89
2023/02/27 01:19:07;;;;;;;6.00;1.93;;;;;;;-4.16;100.00;96592.59;6189572;23;20016;-89
2023/02/27 01:21:33;;;;;;;5.23;1.77;;;;;;;-4.21;100.00;96600.50;6188937;23;20040;-89
2023/02/27 01:23:59;;;;;;;3.57;1.77;;;;;;;-4.15;100.00;96600.28;6188386;23;20419;-89
2023/02/27 01:26:25;;;;;;;4.70;1.80;;;;;;;-4.18;100.00;96602.97;6213766;23;20012;-89
2023/02/27 01:28:52;;;;;;;3.67;1.80;;;;;;;-4.21;100.00;96604.81;6190409;23;20059;-89
2023/02/27 01:31:20;;;;;;;6.30;1.90;;;;;;;-4.22;100.00;96598.84;6190450;23;20420;-89
2023/02/27 01:33:47;;;;;;;4.63;1.60;;;;;;;-4.19;100.00;96603.88;6167603;23;20329;-89
2023/02/27 01:36:14;;;;;;;4.10;1.90;;;;;;;-4.28;100.00;96601.66;6207272;23;20424;-89
2023/02/27 01:38:42;;;;;;;4.93;1.87;;;;;;;-4.27;100.00;96595.59;6167799;23;20450;-89
2023/02/27 01:41:10;;;;;;;4.53;1.90;;;;;;;-4.26;100.00;96594.69;6163725;23;20415;-89
2023/02/27 01:44:12;;;;;;;3.87;1.90;;;;;;;-4.28;100.00;96597.34;6214189;23;20423;-89
2023/02/27 01:46:39;;;;;;;5.90;2.07;;;;;;;-4.33;100.00;96595.84;6180854;23;20566;-89
2023/02/27 01:49:12;;;;;;;3.90;2.10;;;;;;;-4.25;100.00;96593.00;6188597;23;20998;-89
2023/02/27 01:51:45;;;;;;;9.70;2.00;;;;;;;-4.23;100.00;96598.88;6188417;23;20443;-89
2023/02/27 01:54:13;;;;;;;3.77;1.53;;;;;;;-4.33;100.00;96585.56;6188230;23;20800;-89
2023/02/27 01:56:41;;;;;;;6.47;2.20;;;;;;;-4.35;100.00;96587.38;6188303;23;20463;-89
2023/02/27 01:59:09;;;;;;;4.43;1.67;;;;;;;-4.27;100.00;96593.88;6161805;23;20408;-89
2023/02/27 02:01:36;;;;;;;6.57;1.87;;;;;;;-4.34;100.00;96584.75;6189388;23;20415;-89
2023/02/27 02:04:14;;;;;;;4.60;2.70;;;;;;;-4.34;100.00;96579.59;6165109;23;20427;-89
2023/02/27 02:06:44;;;;;;;6.27;2.30;;;;;;;-4.39;100.00;96586.66;6238788;23;20423;-88
2023/02/27 02:09:11;;;;;;;5.33;2.17;;;;;;;-4.37;100.00;96592.56;6192553;23;20928;-89
2023/02/27 02:11:38;;;;;;;3.90;2.00;;;;;;;-4.44;100.00;96590.28;6163582;23;20435;-88
2023/02/27 02:14:09;;;;;;;5.53;1.93;;;;;;;-4.44;100.00;96587.72;6187958;23;20903;-89
2023/02/27 02:17:09;;;;;;;5.53;2.00;;;;;;;-4.52;100.00;96588.88;6172952;23;20466;-89
2023/02/27 02:20:06;;;;;;;4.57;1.83;;;;;;;-4.50;100.00;96587.06;6158577;23;20414;-89
2023/02/27 02:22:47;;;;;;;5.70;1.80;;;;;;;-4.59;100.00;96587.44;6158369;23;20420;-89
2023/02/27 02:25:33;;;;;;;5.23;1.97;;;;;;;-4.54;100.00;96595.78;6168167;23;20456;-89
2023/02/27 02:28:19;;;;;;;5.67;2.13;;;;;;;-4.52;100.00;96588.88;6168150;23;20454;-89
2023/02/27 02:31:06;;;;;;;4.83;1.70;;;;;;;-4.55;100.00;96590.72;6169386;23;20424;-88
2023/02/27 02:34:12;;;;;;;5.63;2.13;;;;;;;-4.60;100.00;96587.47;6143133;23;20427;-88
2023/02/27 02:36:46;;;;;;;7.67;2.00;;;;;;;-4.62;100.00;96582.41;6166694;23;20893;-90
2023/02/27 02:39:26;;;;;;;7.87;2.47;;;;;;;-4.64;100.00;96585.94;6142182;23;20538;-90
2023/02/27 02:42:24;;;;;;;5.00;2.13;;;;;;;-4.65;100.00;96590.22;6166000;23;20422;-90
2023/02/27 02:48:49;;;;;;;7.00;2.27;;;;;;;-4.65;100.00;96586.81;6212498;23;20362;-90
2023/02/27 02:51:22;;;;;;;4.53;1.90;;;;;;;-4.70;100.00;96589.53;6160805;23;20446;-88
2023/02/27 02:53:59;;;;;;;3.42;1.55;;;;;;;-4.72;100.00;96593.91;6162772;23;20825;-88
2023/02/27 02:56:45;;;;;;;6.03;1.97;;;;;;;-4.74;100.00;96596.53;6186157;23;20020;-88
2023/02/27 02:59:50;;;;;;;4.83;2.80;;;;;;;-4.70;100.00;96602.38;6186995;23;20426;-89
2023/02/27 03:02:48;;;;;;;5.00;1.90;;;;;;;-4.78;100.00;96597.53;6212933;23;20423;-89
2023/02/27 03:05:29;;;;;;;4.97;2.17;;;;;;;-4.79;100.00;96602.75;6187367;23;20435;-88
2023/02/27 03:08:24;;;;;;;4.83;2.17;;;;;;;-4.81;100.00;96609.66;6187454;23;20446;-88
2023/02/27 03:11:03;;;;;;;6.53;2.20;;;;;;;-4.84;100.00;96600.31;6160928;23;20454;-88
2023/02/27 03:13:50;;;;;;;5.90;2.40;;;;;;;-4.86;100.00;96602.13;6213354;23;20481;-88
2023/02/27 03:16:22;;;;;;;3.70;2.00;;;;;;;-4.85;100.00;96610.66;6197093;23;20463;-88
2023/02/27 03:19:12;;;;;;;7.27;2.27;;;;;;;-4.83;100.00;96607.16;6174131;23;20439;-88
2023/02/27 03:21:44;;;;;;;7.70;2.47;;;;;;;-4.84;100.00;96600.31;6185766;23;20423;-88
2023/02/27 03:24:18;;;;;;;6.27;2.23;;;;;;;-4.91;100.00;96610.88;6158126;23;20701;-88
2023/02/27 03:26:48;;;;;;;7.37;2.13;;;;;;;-4.86;100.00;96609.81;6185956;23;20470;-88
2023/02/27 03:29:22;;;;;;;6.10;2.30;;;;;;;-4.89;100.00;96611.66;6163162;23;20419;-88
2023/02/27 03:31:57;;;;;;;3.57;2.07;;;;;;;-4.92;100.00;96611.78;6161679;23;20435;-89
2023/02/27 03:34:29;;;;;;;6.10;2.87;;;;;;;-4.94;100.00;96605.84;6162366;23;20423;-88
2023/02/27 03:37:25;;;;;;;8.77;2.30;;;;;;;-4.86;100.00;96614.97;6161362;23;20918;-88
2023/02/27 03:40:01;;;;;;;7.07;2.67;;;;;;;-4.87;100.00;96609.88;6166423;23;20419;-88
2023/02/27 03:42:36;;;;;;;5.43;2.20;;;;;;;-4.90;100.00;96622.81;6167713;23;20019;-88
2023/02/27 03:45:20;;;;;;;5.70;2.13;;;;;;;-4.91;100.00;96619.41;6171226;23;20606;-88
2023/02/27 03:47:46;;;;;;;4.87;2.33;;;;;;;-4.98;100.00;96621.34;6166936;23;20435;-88
2023/02/27 03:50:12;;;;;;;8.83;2.80;;;;;;;-4.85;100.00;96618.34;6174976;23;20427;-88
2023/02/27 03:52:38;;;;;;;6.90;2.10;;;;;;;-4.86;100.00;96616.66;6179788;23;20009;-88
2023/02/27 03:55:16;;;;;;;5.50;2.80;;;;;;;-4.91;100.00;96618.56;6161017;23;20447;-88
2023/02/27 03:57:45;;;;;;;7.40;2.70;;;;;;;-4.98;100.00;96616.22;6150273;23;20575;-88
2023/02/27 04:00:15;;;;;;;6.73;2.70;;;;;;;-5.05;100.00;96622.47;6130809;23;20426;-88
2023/02/27 04:02:44;;;;;;;7.15;2.85;;;;;;;-5.04;100.00;96625.88;6071280;23;20470;-88
2023/02/27 04:05:15;;;;;;;6.67;2.50;;;;;;;-5.00;100.00;96622.28;6068073;23;20034;-88
2023/02/27 04:08:21;;;;;;;8.97;2.87;;;;;;;-5.00;100.00;96624.84;6098389;23;20495;-88
2023/02/27 04:11:18;;;;;;;5.57;2.30;;;;;;;-4.98;100.00;96621.34;6093927;23;21364;-88
2023/02/27 04:14:00;;;;;;;9.00;4.57;;;;;;;-4.92;100.00;96617.75;6089730;23;20416;-88
2023/02/27 04:16:32;;;;;;;6.07;2.80;;;;;;;-5.00;100.00;96623.16;6063190;23;20420;-88
2023/02/27 04:19:27;;;;;;;5.97;2.73;;;;;;;-4.98;100.00;96620.53;6083374;23;20482;-88
2023/02/27 04:22:05;;;;;;;5.67;2.70;;;;;;;-4.99;100.00;96624.81;6083053;23;20423;-88
2023/02/27 04:25:02;;;;;;;8.47;3.37;;;;;;;-4.91;100.00;96613.44;6060881;23;20899;-88
2023/02/27 04:27:33;;;;;;;5.03;2.50;;;;;;;-5.00;100.00;96612.91;6178462;23;20495;-88
2023/02/27 04:30:12;;;;;;;6.60;2.40;;;;;;;-4.98;100.00;96613.66;6188932;23;20435;-88
2023/02/27 04:33:08;;;;;;;8.10;2.93;;;;;;;-4.95;100.00;96620.41;6164314;23;20459;-88
2023/02/27 04:35:53;;;;;;;8.93;3.07;;;;;;;-4.88;100.00;96627.00;6190739;23;20803;-88
2023/02/27 04:38:28;;;;;;;5.82;2.55;;;;;;;-4.90;100.00;96620.22;6188354;23;20432;-88
2023/02/27 04:41:07;;;;;;;7.07;3.23;;;;;;;-4.97;100.00;96624.75;6188000;23;20096;-88
2023/02/27 04:43:36;;;;;;;5.73;2.83;;;;;;;-4.90;100.00;96633.91;6189779;23;20594;-89
2023/02/27 04:46:05;;;;;;;9.03;3.40;;;;;;;-4.94;100.00;96634.06;6167014;23;20996;-89
2023/02/27 04:48:48;;;;;;;5.03;2.37;;;;;;;-4.87;100.00;96644.03;6192345;23;20406;-89
2023/02/27 04:51:21;;;;;;;6.22;3.42;;;;;;;-4.92;100.00;96637.44;6213669;23;20435;-88
2023/02/27 04:53:47;;;;;;;3.88;2.13;;;;;;;-4.82;100.00;96633.63;6170110;23;20017;-88
2023/02/27 04:56:22;;;;;;;7.50;3.07;;;;;;;-4.90;100.00;96641.59;6173634;23;20027;-89
2023/02/27 04:59:00;;;;;;;6.13;3.10;;;;;;;-4.86;100.00;96642.31;6182627;23;20019;-89
2023/02/27 05:01:48;;;;;;;6.63;2.97;;;;;;;-4.86;100.00;96650.00;6193420;23;20071;-89
2023/02/27 05:04:17;;;;;;;8.80;2.83;;;;;;;-4.91;100.00;96639.94;6191279;23;20419;-88
2023/02/27 05:06:46;;;;;;;8.43;3.10;;;;;;;-4.93;100.00;96638.31;6167302;23;20008;-89
2023/02/27 05:09:34;;;;;;;7.00;3.23;;;;;;;-4.96;100.00;96636.69;6189078;23;20419;-89
2023/02/27 05:15:45;;;;;;;7.38;3.33;;;;;;;-4.99;100.00;96634.25;6211330;23;20420;-89
2023/02/27 05:18:16;;;;;;;7.60;2.90;;;;;;;-4.99;100.00;96632.50;6167972;23;20047;-89
2023/02/27 05:20:50;;;;;;;6.47;3.03;;;;;;;-4.91;100.00;96642.50;6189717;23;20472;-89
2023/02/27 05:23:20;;;;;;;8.77;3.60;;;;;;;-4.91;100.00;96642.50;6188402;23;20016;-89
2023/02/27 05:26:10;;;;;;;6.82;2.90;;;;;;;-4.92;100.00;96645.13;6191862;23;20447;-89
2023/02/27 05:28:53;;;;;;;11.23;3.27;;;;;;;-4.91;100.00;96649.34;6232958;23;20043;-89
2023/02/27 05:31:28;;;;;;;10.27;3.13;;;;;;;-4.98;100.00;96648.72;6186249;23;20422;-89
2023/02/27 05:34:19;;;;;;;9.07;2.80;;;;;;;-5.02;100.00;96648.00;6188244;23;20013;-89
2023/02/27 05:36:56;;;;;;;8.03;3.23;;;;;;;-5.01;100.00;96662.50;6130165;23;20705;-87
2023/02/27 05:39:28;;;;;;;9.73;3.72;;;;;;;-4.63;100.00;96655.13;6145178;23;20420;-90
2023/02/27 05:42:12;;;;;;;8.37;3.43;;;;;;;-4.77;100.00;96657.38;6123531;23;20869;-89
2023/02/27 05:44:48;;;;;;;8.17;3.00;;;;;;;-4.85;100.00;96657.66;6149250;23;20399;-89
2023/02/27 05:47:19;;;;;;;9.00;4.18;;;;;;;-4.94;100.00;96659.72;6114010;23;20923;-89
2023/02/27 05:49:58;;;;;;;5.70;3.20;;;;;;;-4.93;100.00;96659.66;6068517;23;20516;-89
2023/02/27 05:52:27;;;;;;;7.45;3.17;;;;;;;-4.92;100.00;96657.94;6071147;23;20894;-89
2023/02/27 05:55:02;;;;;;;9.30;4.57;;;;;;;-4.95;100.00;96652.94;6042878;23;20012;-89
2023/02/27 05:57:35;;;;;;;5.10;3.13;;;;;;;-4.93;100.00;96654.53;6022883;23;20376;-89
2023/02/27 06:00:13;;;;;;;5.78;2.72;;;;;;;-5.00;100.00;96650.50;6007328;23;20454;-89
2023/02/27 06:02:44;;;;;;;12.23;4.93;;;;;;;-4.99;100.00;96659.91;6047931;23;20390;-88
2023/02/27 06:05:18;;;;;;;9.73;2.92;;;;;;;-5.02;100.00;96657.44;6005566;23;20496;-87
2023/02/27 06:07:44;;;;;;;8.83;3.73;;;;;;;-5.04;100.00;96661.78;6005244;23;20317;-88
2023/02/27 06:10:14;;;;;;;7.63;3.30;;;;;;;-4.99;100.00;96652.19;6016863;23;20426;-88
2023/02/27 06:12:42;;;;;;;10.63;3.63;;;;;;;-4.99;100.00;96662.47;6019563;23;20016;-88
2023/02/27 06:15:08;;;;;;;7.40;3.43;;;;;;;-5.01;100.00;96666.78;5981076;23;20017;-88
2023/02/27 06:17:34;;;;;;;9.05;4.13;;;;;;;-5.08;100.00;96670.47;5968754;23;20431;-87
2023/02/27 06:20:00;;;;;;;9.07;3.83;;;;;;;-5.06;100.00;96673.81;5999562;23;20012;-88
2023/02/27 06:22:25;;;;;;;7.27;3.50;;;;;;;-5.05;100.00;96678.88;6026280;23;20021;-88
2023/02/27 06:24:51;;;;;;;5.20;2.93;;;;;;;-5.02;100.00;96683.09;6092226;23;20062;-89
2023/02/27 06:27:17;;;;;;;6.43;3.27;;;;;;;-5.06;100.00;96677.22;6103294;23;20267;-88
2023/02/27 06:29:42;;;;;;;11.47;4.57;;;;;;;-5.03;100.00;96687.38;6080868;23;20016;-88
2023/02/27 06:32:08;;;;;;;11.03;4.87;;;;;;;-4.98;100.00;96685.47;6120655;23;20238;-88
2023/02/27 06:34:34;;;;;;;7.77;3.50;;;;;;;-4.89;100.00;96684.31;6151966;23;20364;-88
2023/02/27 06:37:00;;;;;;;6.43;3.10;;;;;;;-4.84;100.00;96676.47;6169161;23;20009;-88
2023/02/27 06:39:25;;;;;;;7.93;3.57;;;;;;;-4.47;100.00;96682.81;6141107;23;20078;-87
2023/02/27 06:41:51;;;;;;;7.10;3.20;;;;;;;-4.28;100.00;96683.81;6150192;23;20466;-88
2023/02/27 06:44:17;;;;;;;8.70;3.40;;;;;;;-4.11;100.00;96684.00;6106357;23;20658;-88
2023/02/27 06:46:43;;;;;;;6.00;3.53;;;;;;;-3.88;100.00;96683.13;6125431;23;20425;-88
2023/02/27 06:49:08;;;;;;;5.23;2.57;;;;;;;-3.80;100.00;96680.22;6160017;23;20086;-87
2023/02/27 06:51:34;;;;;;;6.33;2.67;;;;;;;-3.64;100.00;96685.59;6148798;23;20275;-88
2023/02/27 06:54:01;;;;;;;5.97;2.73;;;;;;;-3.44;100.00;96683.06;6140518;23;20576;-88
2023/02/27 06:56:28;;;;;;;5.83;3.17;;;;;;;-3.26;100.00;96678.88;6136645;23;20293;-88
2023/02/27 06:58:54;;;;;;;6.57;2.50;;;;;;;-3.30;100.00;96672.19;6144133;23;20403;-88
2023/02/27 07:01:19;;;;;;;5.97;2.50;;;;;;;-3.44;100.00;96674.50;6145939;23;20415;-88
2023/02/27 07:03:45;;;;;;;8.93;3.10;;;;;;;-3.54;100.00;96675.78;6121067;23;20012;-88
2023/02/27 07:06:11;;;;;;;5.67;3.20;;;;;;;-3.35;100.00;96674.97;6107380;23;20495;-88
2023/02/27 07:08:37;;;;;;;8.73;3.30;;;;;;;-3.05;100.00;96681.44;6091345;23;20008;-88
2023/02/27 07:11:03;;;;;;;6.90;2.97;;;;;;;-2.41;100.00;96673.50;6117799;23;20447;-87
2023/02/27 07:13:28;;;;;;;6.50;2.50;;;;;;;-2.33;100.00;96679.13;6075922;23;20013;-86
2023/02/27 07:15:56;;;;;;;9.97;3.23;;;;;;;-1.88;100.00;96667.59;6080780;23;20915;-86
2023/02/27 07:18:23;;;;;;;6.80;2.60;;;;;;;-1.53;100.00;96668.50;6081654;23;20107;-86
2023/02/27 07:20:50;;;;;;;6.27;2.50;;;;;;;-1.52;100.00;96662.41;6087246;23;20423;-86
2023/02/27 07:23:17;;;;;;;8.23;2.30;;;;;;;-1.40;100.00;96668.72;6060699;23;20414;-86
2023/02/27 07:25:42;;;;;;;4.63;2.50;;;;;;;-0.96;100.00;96666.50;6120393;23;20435;-86
2023/02/27 07:28:08;;;;;;;7.13;2.30;;;;;;;-0.77;100.00;96668.97;6184023;23;20498;-86
2023/02/27 07:30:34;;;;;;;6.93;2.60;;;;;;;-0.53;100.00;96666.88;6183731;23;20012;-86
2023/02/27 07:32:59;;;;;;;5.47;2.43;;;;;;;-0.78;100.00;96667.28;6183706;23;20020;-86
2023/02/27 07:35:25;;;;;;;7.90;2.70;;;;;;;-0.30;100.00;96664.81;6184738;23;20115;-86
2023/02/27 07:37:51;;;;;;;7.03;2.87;;;;;;;-0.61;100.00;96673.34;6184659;23;20013;-86
2023/02/27 07:40:17;;;;;;;4.13;2.33;;;;;;;-0.45;100.00;96658.69;6183579;23;20403;-87
2023/02/27 07:42:43;;;;;;;6.70;2.27;;;;;;;-0.05;100.00;96657.41;6185023;23;20396;-87
2023/02/27 07:45:09;;;;;;;5.77;2.30;;;;;;;-0.06;100.00;96662.66;6159719;23;20083;-87
2023/02/27 07:47:35;;;;;;;6.50;2.43;;;;;;;0.47;100.00;96658.84;6184487;23;20098;-87
2023/02/27 07:50:00;;;;;;;6.00;2.53;;;;;;;0.70;100.00;96660.97;6159183;23;20922;-87
2023/02/27 07:52:26;;;;;;;6.50;2.97;;;;;;;0.76;100.00;96664.09;6146252;23;20017;-87
2023/02/27 07:54:52;;;;;;;5.70;2.83;;;;;;;1.03;100.00;96662.50;6161414;23;20055;-87
2023/02/27 07:57:18;;;;;;;8.17;3.60;;;;;;;1.41;100.00;96660.22;6186527;23;20008;-87
2023/02/27 07:59:43;;;;;;;6.07;2.43;;;;;;;1.12;100.00;96664.53;6161633;23;20059;-87
2023/02/27 08:02:11;;;;;;;5.60;2.43;;;;;;;1.20;100.00;96673.63;6185976;23;20099;-88
2023/02/27 08:04:36;;;;;;;7.13;2.30;;;;;;;-0.42;100.00;96678.38;6186635;23;20058;-87
2023/02/27 08:07:03;;;;;;;5.63;2.63;;;;;;;0.26;100.00;96675.56;6161011;23;20493;-87
2023/02/27 08:09:31;;;;;;;4.97;2.27;;;;;;;-0.07;100.00;96673.91;6188235;23;20055;-87
2023/02/27 08:11:57;;;;;;;6.63;2.40;;;;;;;1.50;100.00;96664.00;6162435;23;20423;-88
2023/02/27 08:14:24;;;;;;;7.10;2.50;;;;;;;1.28;100.00;96677.44;6188721;23;20432;-87
2023/02/27 08:16:50;;;;;;;5.07;2.23;;;;;;;1.17;100.00;96672.91;6195595;23;20407;-88
2023/02/27 08:19:16;;;;;;;3.73;2.00;;;;;;;1.38;100.00;96670.78;6229926;22;20448;-88
2023/02/27 08:21:42;;;;;;;5.77;2.60;;;;;;;0.97;100.00;96683.56;6185541;23;20408;-88
2023/02/27 08:24:09;;;;;;;9.63;3.50;;;;;;;1.70;100.00;96664.56;6210895;23;20055;-88
2023/02/27 08:26:35;;;;;;;10.30;3.17;;;;;;;1.70;100.00;96669.75;6185956;23;20009;-88
2023/02/27 08:29:01;;;;;;;6.43;2.67;;;;;;;2.44;100.00;96664.19;6187125;23;20431;-88
2023/02/27 08:31:26;;;;;;;8.73;3.03;;;;;;;2.09;100.00;96663.84;6160050;23;20046;-88
2023/02/27 08:33:52;;;;;;;5.07;2.40;;;;;;;2.48;100.00;96664.81;6161977;23;20017;-88
2023/02/27 08:36:18;;;;;;;4.60;2.07;;;;;;;2.02;100.00;96668.59;6187207;23;20023;-88
2023/02/27 08:38:43;;;;;;;4.73;1.90;;;;;;;2.60;100.00;96666.63;6162911;23;20095;-89
2023/02/27 08:41:11;;;;;;;5.33;2.37;;;;;;;2.18;100.00;96667.59;6187122;23;20352;-89
2023/02/27 08:43:37;;;;;;;8.40;4.00;;;;;;;1.65;100.00;96670.84;6187471;23;20012;-89
2023/02/27 08:46:02;;;;;;;17.13;7.10;;;;;;;2.04;100.00;96669.31;6200074;23;20411;-89
2023/02/27 08:48:30;;;;;;;9.40;5.27;;;;;;;2.28;100.00;96671.28;6178886;23;20621;-89
2023/02/27 08:50:56;;;;;;;4.67;2.60;;;;;;;2.67;100.00;96674.84;6165972;23;20066;-88
2023/02/27 08:53:22;;;;;;;6.20;2.80;;;;;;;3.35;100.00;96676.41;6162251;23;20044;-89
2023/02/27 08:55:49;;;;;;;4.20;2.10;;;;;;;2.42;100.00;96675.63;6187235;23;20013;-89
2023/02/27 08:58:16;;;;;;;7.47;2.40;;;;;;;2.93;100.00;96679.19;6162088;23;20087;-89
2023/02/27 09:00:42;;;;;;;6.83;2.23;;;;;;;3.64;100.00;96688.25;6190426;23;20016;-89
2023/02/27 09:03:08;;;;;;;5.87;1.80;;;;;;;2.95;100.00;96679.91;6191358;23;20023;-89
2023/02/27 09:05:34;;;;;;;5.03;2.17;;;;;;;3.61;100.00;96682.44;6215827;23;20026;-89
2023/02/27 09:08:01;;;;;;;5.63;2.00;;;;;;;3.96;100.00;96677.41;6191048;23;20348;-89
2023/02/27 09:10:32;;;;;;;5.50;1.97;;;;;;;3.99;100.00;96679.75;6166767;23;20008;-90
2023/02/27 09:12:58;;;;;;;3.90;2.00;;;;;;;4.15;100.00;96671.72;6190826;23;20467;-88
2023/02/27 09:15:24;;;;;;;5.53;2.17;;;;;;;4.25;100.00;96683.13;6166754;23;20012;-89
2023/02/27 09:17:55;;;;;;;3.73;1.47;;;;;;;4.46;100.00;96679.00;6191340;23;20510;-89
2023/02/27 09:20:21;;;;;;;5.93;2.13;;;;;;;4.10;100.00;96684.22;6171609;23;20016;-88
2023/02/27 09:22:47;;;;;;;4.90;1.77;;;;;;;4.80;100.00;96675.72;6198261;23;20075;-89
2023/02/27 09:25:13;;;;;;;5.03;2.10;;;;;;;5.39;100.00;96666.03;6191112;23;20016;-89
2023/02/27 09:27:39;;;;;;;5.80;2.27;;;;;;;5.71;100.00;96673.19;6191958;23;20341;-89
2023/02/27 09:30:08;;;;;;;5.70;2.30;;;;;;;5.32;100.00;96671.81;6190410;23;20446;-92
2023/02/27 09:32:34;;;;;;;5.77;2.00;;;;;;;6.27;100.00;96670.56;6181190;23;20020;-80
2023/02/27 09:35:00;;;;;;;8.40;3.53;;;;;;;6.71;100.00;96670.56;6182812;23;20023;-80
2023/02/27 09:37:43;;;;;;;5.87;2.00;;;;;;;4.38;100.00;96683.91;6182593;23;20016;-92
2023/02/27 09:40:22;;;;;;;6.25;3.60;;;;;;;4.52;100.00;96685.53;6162779;23;20020;-88
2023/02/27 09:42:52;;;;;;;8.97;3.50;;;;;;;5.00;100.00;96689.88;6161765;23;20032;-88
2023/02/27 09:45:24;;;;;;;4.40;1.43;;;;;;;5.33;100.00;96692.59;6185013;23;20082;-87
2023/02/27 09:47:59;;;;;;;5.90;1.90;;;;;;;5.56;100.00;96676.94;6161525;23;20012;-88
2023/02/27 09:50:48;;;;;;;4.27;1.50;;;;;;;5.71;99.41;96682.78;6186363;23;20018;-88
2023/02/27 09:53:28;;;;;;;4.07;1.70;;;;;;;5.45;98.28;96696.03;6185240;23;20103;-88
2023/02/27 09:56:08;;;;;;;4.90;1.80;;;;;;;4.80;98.79;96694.78;6162334;23;20123;-88
2023/02/27 09:58:56;;;;;;;2.77;1.27;;;;;;;4.61;98.19;96700.50;6176344;23;20014;-88
2023/02/27 10:01:34;;;;;;;6.03;2.03;;;;;;;5.32;100.00;96690.06;6191920;23;20020;-88
2023/02/27 10:04:18;;;;;;;5.37;1.80;;;;;;;6.10;96.47;96686.69;6210548;23;20020;-88
2023/02/27 10:06:43;;;;;;;4.77;1.70;;;;;;;5.61;94.13;96695.72;6185976;23;20082;-88
2023/02/27 10:09:15;;;;;;;5.00;1.67;;;;;;;5.18;93.58;96698.94;6185551;23;20012;-87
2023/02/27 10:12:20;;;;;;;7.37;1.63;;;;;;;5.49;94.99;96697.47;6183974;23;20436;-88
2023/02/27 10:15:26;;;;;;;6.27;2.53;;;;;;;4.92;92.69;96704.28;6185816;23;20013;-88
2023/02/27 10:18:00;;;;;;;6.03;2.00;;;;;;;5.66;87.50;96710.03;6146922;23;20411;-88
2023/02/27 10:20:32;;;;;;;3.00;1.40;;;;;;;4.57;87.99;96719.06;6185530;23;20099;-88
2023/02/27 10:23:04;;;;;;;3.60;1.43;;;;;;;5.35;87.44;96719.38;6169670;23;20405;-88
2023/02/27 10:25:38;;;;;;;3.97;1.40;;;;;;;4.37;87.15;96721.31;6185200;23;20051;-88
2023/02/27 10:28:13;;;;;;;5.87;1.70;;;;;;;4.54;88.54;96711.47;6175620;23;20012;-88
2023/02/27 10:30:39;;;;;;;4.60;1.37;;;;;;;3.59;90.25;96720.69;6159463;23;20303;-88
2023/02/27 10:33:13;;;;;;;4.83;1.50;;;;;;;3.09;88.74;96730.16;6184822;23;20397;-88
2023/02/27 10:35:43;;;;;;;2.83;1.40;;;;;;;4.17;90.42;96717.53;6160810;23;20448;-89
2023/02/27 10:38:16;;;;;;;3.27;1.33;;;;;;;3.48;89.69;96743.06;6159828;23;20013;-88
2023/02/27 10:40:43;;;;;;;5.05;1.90;;;;;;;3.63;91.41;96725.59;6158459;23;20020;-88
2023/02/27 10:43:13;;;;;;;4.33;1.67;;;;;;;4.03;90.83;96727.25;6185764;23;20022;-90
2023/02/27 10:45:43;;;;;;;5.00;1.70;;;;;;;4.10;90.82;96718.91;6160886;23;20024;-88
2023/02/27 10:48:11;;;;;;;6.63;2.90;;;;;;;3.66;91.94;96727.19;6186411;23;20108;-88
2023/02/27 10:50:41;;;;;;;3.90;1.27;;;;;;;4.35;91.59;96728.41;6173004;23;20016;-89
2023/02/27 10:53:17;;;;;;;4.47;2.07;;;;;;;5.44;91.04;96721.28;6190910;23;20016;-88
2023/02/27 10:55:47;;;;;;;4.13;1.60;;;;;;;5.70;86.19;96715.88;6164041;23;20008;-87
2023/02/27 10:58:19;;;;;;;4.00;1.70;;;;;;;5.53;83.72;96719.75;6188054;23;20024;-88
2023/02/27 11:00:58;;;;;;;6.30;2.80;;;;;;;5.37;89.08;96729.69;6161204;23;20036;-88
2023/02/27 11:03:31;;;;;;;5.13;2.33;;;;;;;4.42;90.85;96727.03;6209992;23;20008;-88
2023/02/27 11:06:19;;;;;;;5.68;2.22;;;;;;;3.39;93.21;96724.69;6159186;23;20095;-88
2023/02/27 11:09:22;;;;;;;5.13;1.70;;;;;;;4.14;91.19;96727.31;6160358;23;20020;-88
2023/02/27 11:11:49;;;;;;;4.67;1.90;;;;;;;4.40;93.96;96713.28;6159805;23;20021;-89
2023/02/27 11:14:18;;;;;;;4.07;1.83;;;;;;;4.15;96.10;96726.38;6160465;23;20016;-89
2023/02/27 11:16:55;;;;;;;6.70;2.50;;;;;;;4.37;94.72;96728.31;6164194;23;20041;-89
2023/02/27 11:19:32;;;;;;;5.07;2.00;;;;;;;4.43;91.94;96723.50;6163302;23;20074;-88
2023/02/27 11:22:06;;;;;;;4.27;1.40;;;;;;;2.52;96.48;96744.19;6188009;23;20017;-88
2023/02/27 11:24:41;;;;;;;10.32;2.40;;;;;;;3.25;98.04;96729.03;6163740;23;20038;-88
2023/02/27 11:27:20;;;;;;;4.20;1.53;;;;;;;3.87;93.78;96730.91;6164474;23;20036;-89
2023/02/27 11:29:59;;;;;;;6.50;1.77;;;;;;;3.67;95.44;96721.84;6164922;23;20020;-93
2023/02/27 11:32:47;;;;;;;2.83;1.40;;;;;;;4.73;92.95;96724.84;6164822;23;20036;-88
2023/02/27 11:35:30;;;;;;;4.60;1.67;;;;;;;3.34;94.91;96729.34;6191269;23;20009;-93
2023/02/27 11:38:05;;;;;;;4.23;1.63;;;;;;;4.35;92.19;96715.38;6168017;23;20090;-86
2023/02/27 11:40:49;;;;;;;4.57;1.67;;;;;;;3.36;95.81;96715.31;6182337;23;20080;-86
2023/02/27 11:43:19;;;;;;;5.13;1.52;;;;;;;2.80;100.00;96691.31;6163871;23;20418;-87
2023/02/27 11:45:52;;;;;;;5.73;1.47;;;;;;;3.45;98.09;96709.47;6188651;23;20639;-86
2023/02/27 11:48:49;;;;;;;7.95;2.17;;;;;;;4.07;95.62;96702.66;6162912;23;20523;-85
2023/02/27 11:51:27;;;;;;;3.93;1.70;;;;;;;3.10;98.20;96713.59;6185687;23;20103;-85
2023/02/27 11:54:28;;;;;;;3.57;1.50;;;;;;;3.26;100.00;96701.25;6185688;23;20026;-85
2023/02/27 11:57:03;;;;;;;4.10;1.70;;;;;;;3.56;100.00;96706.16;6184243;23;20013;-85
2023/02/27 11:59:45;;;;;;;4.43;1.80;;;;;;;3.83;99.94;96702.59;6184820;23;20027;-85
2023/02/27 12:02:19;;;;;;;4.40;1.40;;;;;;;2.76;100.00;96713.22;6186028;23;20016;-85